createdAt,value
2023-01-29T00:00:37.476Z,0.35
2023-01-29T00:01:39.922Z,0.35
2023-01-29T00:02:42.302Z,0.32
2023-01-29T00:03:44.774Z,0.30
2023-01-29T00:04:47.203Z,0.29
2023-01-29T00:05:49.626Z,0.34
2023-01-29T00:06:52.426Z,0.43
2023-01-29T00:07:56.446Z,0.35
2023-01-29T00:08:59.012Z,0.33
2023-01-29T00:10:01.526Z,0.35
2023-01-29T00:11:08.665Z,0.40
2023-01-29T00:12:11.359Z,0.36
2023-01-29T00:13:14.223Z,0.37
2023-01-29T00:14:16.658Z,0.35
2023-01-29T00:15:19.183Z,0.33
2023-01-29T00:16:21.651Z,0.39
2023-01-29T00:17:24.186Z,0.36
2023-01-29T00:18:27.523Z,0.42
2023-01-29T00:19:29.880Z,0.37
2023-01-29T00:20:32.383Z,0.33
2023-01-29T00:21:34.843Z,0.44
2023-01-29T00:22:37.343Z,0.42
2023-01-29T00:23:40.051Z,0.40
2023-01-29T00:24:44.503Z,0.43
2023-01-29T00:25:47.871Z,0.35
2023-01-29T00:26:50.454Z,0.31
2023-01-29T00:27:52.795Z,0.36
2023-01-29T00:29:00.815Z,0.32
2023-01-29T00:30:09.791Z,0.33
2023-01-29T00:31:18.486Z,0.38
2023-01-29T00:32:21.140Z,0.40
2023-01-29T00:33:23.516Z,0.51
2023-01-29T00:34:26.107Z,0.59
2023-01-29T00:35:28.466Z,0.55
2023-01-29T00:36:31.487Z,0.64
2023-01-29T00:37:36.129Z,0.65
2023-01-29T00:38:39.245Z,0.72
2023-01-29T00:39:47.873Z,0.74
2023-01-29T00:41:09.301Z,0.76
2023-01-29T00:42:30.078Z,0.79
2023-01-29T00:43:51.240Z,0.82
2023-01-29T00:44:59.586Z,0.83
2023-01-29T00:46:01.927Z,0.86
2023-01-29T00:47:25.663Z,0.90
2023-01-29T00:48:28.414Z,0.90
2023-01-29T00:49:31.056Z,0.91
2023-01-29T00:50:34.676Z,0.98
2023-01-29T00:51:38.609Z,0.93
2023-01-29T00:52:41.336Z,0.99
2023-01-29T00:53:45.111Z,1.00
2023-01-29T00:54:47.505Z,1.02
2023-01-29T00:55:49.899Z,1.05
2023-01-29T00:56:52.284Z,1.10
2023-01-29T00:57:54.902Z,1.11
2023-01-29T00:58:57.531Z,1.08
2023-01-29T01:00:00.504Z,1.17
2023-01-29T01:01:03.329Z,1.10
2023-01-29T01:02:25.080Z,1.15
2023-01-29T01:03:27.590Z,1.21
2023-01-29T01:04:30.432Z,1.19
2023-01-29T01:05:33.779Z,1.12
2023-01-29T01:06:42.815Z,1.09
2023-01-29T01:07:50.587Z,1.18
2023-01-29T01:09:11.656Z,1.32
2023-01-29T01:10:24.392Z,1.38
2023-01-29T01:11:26.883Z,1.29
2023-01-29T01:12:29.625Z,1.28
2023-01-29T01:13:33.980Z,1.25
2023-01-29T01:14:36.713Z,1.25
2023-01-29T01:15:40.690Z,1.23
2023-01-29T01:16:43.038Z,1.21
2023-01-29T01:17:46.012Z,1.22
2023-01-29T01:18:48.493Z,1.21
2023-01-29T01:19:50.850Z,1.23
2023-01-29T01:20:59.146Z,1.19
2023-01-29T01:22:01.664Z,1.29
2023-01-29T01:23:04.912Z,1.29
2023-01-29T01:24:07.375Z,1.26
2023-01-29T01:25:10.264Z,1.31
2023-01-29T01:26:12.827Z,1.23
2023-01-29T01:27:15.525Z,1.23
2023-01-29T01:28:18.032Z,1.21
2023-01-29T01:29:20.583Z,1.22
2023-01-29T01:30:24.267Z,1.33
2023-01-29T01:31:26.889Z,1.26
2023-01-29T01:32:29.667Z,1.28
2023-01-29T01:33:32.027Z,1.24
2023-01-29T01:34:34.668Z,1.24
2023-01-29T01:35:39.094Z,1.28
2023-01-29T01:36:41.526Z,1.19
2023-01-29T01:37:44.147Z,1.27
2023-01-29T01:38:46.636Z,1.23
2023-01-29T01:39:50.664Z,1.25
2023-01-29T01:40:52.953Z,1.22
2023-01-29T01:41:56.127Z,1.29
2023-01-29T01:43:00.139Z,1.30
2023-01-29T01:44:04.554Z,1.29
2023-01-29T01:45:16.782Z,1.29
2023-01-29T01:46:20.013Z,1.34
2023-01-29T01:47:37.850Z,1.22
2023-01-29T01:48:46.867Z,1.18
2023-01-29T01:49:49.365Z,1.21
2023-01-29T01:51:00.877Z,1.26
2023-01-29T01:52:03.520Z,1.30
2023-01-29T01:53:12.342Z,1.24
2023-01-29T01:54:27.488Z,1.23
2023-01-29T01:55:35.327Z,1.25
2023-01-29T01:56:43.499Z,1.25
2023-01-29T01:57:48.674Z,1.27
2023-01-29T01:58:55.780Z,1.25
2023-01-29T02:00:11.636Z,1.35
2023-01-29T02:01:29.521Z,1.24
2023-01-29T02:02:50.727Z,1.29
2023-01-29T02:04:24.424Z,1.29
2023-01-29T02:05:46.329Z,1.23
2023-01-29T02:07:09.245Z,1.19
2023-01-29T02:08:31.120Z,1.26
2023-01-29T02:09:46.615Z,1.31
2023-01-29T02:10:49.884Z,1.29
2023-01-29T02:11:52.205Z,1.33
2023-01-29T02:12:54.529Z,1.28
2023-01-29T02:13:57.812Z,1.29
2023-01-29T02:15:01.039Z,1.26
2023-01-29T02:16:03.457Z,1.26
2023-01-29T02:17:07.880Z,1.24
2023-01-29T02:18:13.263Z,1.25
2023-01-29T02:19:36.589Z,1.25
2023-01-29T02:20:44.491Z,1.27
2023-01-29T02:22:01.658Z,1.25
2023-01-29T02:23:04.398Z,1.27
2023-01-29T02:24:21.380Z,1.20
2023-01-29T02:25:45.594Z,1.21
2023-01-29T02:27:05.536Z,1.25
2023-01-29T02:28:26.428Z,1.21
2023-01-29T02:29:47.845Z,1.19
2023-01-29T02:30:50.377Z,1.17
2023-01-29T02:31:55.559Z,1.22
2023-01-29T02:33:13.928Z,1.18
2023-01-29T02:34:31.821Z,1.17
2023-01-29T02:35:37.651Z,1.16
2023-01-29T02:37:03.225Z,1.19
2023-01-29T02:38:18.185Z,1.21
2023-01-29T02:39:37.699Z,1.19
2023-01-29T02:40:54.375Z,1.21
2023-01-29T02:42:21.327Z,1.16
2023-01-29T02:43:47.575Z,1.16
2023-01-29T02:45:05.800Z,1.16
2023-01-29T02:46:18.549Z,1.24
2023-01-29T02:47:41.490Z,1.20
2023-01-29T02:49:07.147Z,1.28
2023-01-29T02:50:21.679Z,1.24
2023-01-29T02:51:52.059Z,1.22
2023-01-29T02:53:09.464Z,1.18
2023-01-29T02:54:22.125Z,1.19
2023-01-29T02:55:55.004Z,1.25
2023-01-29T02:56:59.263Z,1.23
2023-01-29T02:58:20.496Z,1.20
2023-01-29T02:59:37.805Z,1.22
2023-01-29T03:00:45.066Z,1.18
2023-01-29T03:01:57.111Z,1.20
2023-01-29T03:03:19.197Z,1.14
2023-01-29T03:04:27.818Z,1.13
2023-01-29T03:06:19.467Z,1.15
2023-01-29T03:07:45.072Z,1.21
2023-01-29T03:09:19.807Z,1.24
2023-01-29T03:10:31.530Z,1.23
2023-01-29T03:11:45.110Z,1.23
2023-01-29T03:12:59.911Z,1.27
2023-01-29T03:14:17.063Z,1.28
2023-01-29T03:15:27.436Z,1.23
2023-01-29T03:16:52.817Z,1.32
2023-01-29T03:18:08.890Z,1.30
2023-01-29T03:19:29.177Z,1.30
2023-01-29T03:20:36.921Z,1.26
2023-01-29T03:21:59.799Z,1.22
2023-01-29T03:23:27.299Z,1.23
2023-01-29T03:25:12.069Z,1.27
2023-01-29T03:26:36.644Z,1.28
2023-01-29T03:28:14.500Z,1.25
2023-01-29T03:29:39.353Z,1.22
2023-01-29T03:31:09.107Z,1.23
2023-01-29T03:32:24.894Z,1.13
2023-01-29T03:33:32.465Z,1.17
2023-01-29T03:34:43.800Z,1.11
2023-01-29T03:36:10.691Z,1.15
2023-01-29T03:37:44.875Z,1.25
2023-01-29T03:38:47.839Z,1.15
2023-01-29T03:39:50.389Z,1.22
2023-01-29T03:40:58.811Z,1.15
2023-01-29T03:42:03.067Z,1.21
2023-01-29T03:43:33.204Z,1.19
2023-01-29T03:44:42.213Z,1.17
2023-01-29T03:46:06.016Z,1.14
2023-01-29T03:47:08.732Z,1.18
2023-01-29T03:48:29.538Z,1.16
2023-01-29T03:49:59.851Z,1.13
2023-01-29T03:51:02.582Z,1.23
2023-01-29T03:52:17.097Z,1.32
2023-01-29T03:53:28.234Z,1.28
2023-01-29T03:54:31.718Z,1.27
2023-01-29T03:55:58.405Z,1.26
2023-01-29T03:57:16.252Z,1.26
2023-01-29T03:58:56.246Z,1.26
2023-01-29T04:00:09.262Z,1.22
2023-01-29T04:01:58.593Z,1.34
2023-01-29T04:03:07.852Z,1.31
2023-01-29T04:04:38.175Z,1.42
2023-01-29T04:05:51.337Z,1.35
2023-01-29T04:07:12.515Z,1.33
2023-01-29T04:08:26.739Z,1.35
2023-01-29T04:09:34.550Z,1.28
2023-01-29T04:10:40.353Z,1.26
2023-01-29T04:11:48.631Z,1.25
2023-01-29T04:13:01.106Z,1.29
2023-01-29T04:14:04.407Z,1.25
2023-01-29T04:15:10.717Z,1.25
2023-01-29T04:16:18.800Z,1.29
2023-01-29T04:17:43.227Z,1.28
2023-01-29T04:18:54.909Z,1.22
2023-01-29T04:20:02.923Z,1.31
2023-01-29T04:21:10.176Z,1.26
2023-01-29T04:22:16.529Z,1.31
2023-01-29T04:23:25.588Z,1.19
2023-01-29T04:24:28.811Z,1.17
2023-01-29T04:25:42.234Z,1.24
2023-01-29T04:26:58.595Z,1.18
2023-01-29T04:28:26.316Z,1.17
2023-01-29T04:29:56.172Z,1.15
2023-01-29T04:31:08.534Z,1.11
2023-01-29T04:32:18.309Z,1.12
2023-01-29T04:33:58.743Z,1.11
2023-01-29T04:35:17.511Z,1.13
2023-01-29T04:36:46.480Z,1.11
2023-01-29T04:38:46.227Z,1.16
2023-01-29T04:40:28.935Z,1.16
2023-01-29T04:41:52.833Z,1.11
2023-01-29T04:43:05.408Z,1.10
2023-01-29T04:44:07.668Z,1.15
2023-01-29T04:45:24.023Z,1.13
2023-01-29T04:46:32.689Z,1.12
2023-01-29T04:48:09.100Z,1.17
2023-01-29T04:49:30.226Z,1.25
2023-01-29T04:50:40.501Z,1.28
2023-01-29T04:51:57.939Z,1.34
2023-01-29T04:53:00.240Z,1.27
2023-01-29T04:54:12.605Z,1.26
2023-01-29T04:55:36.159Z,1.26
2023-01-29T04:56:56.829Z,1.17
2023-01-29T04:58:13.025Z,1.16
2023-01-29T04:59:23.913Z,1.14
2023-01-29T05:00:32.448Z,1.14
2023-01-29T05:01:36.548Z,1.19
2023-01-29T05:02:41.273Z,1.18
2023-01-29T05:03:48.066Z,1.16
2023-01-29T05:04:51.036Z,1.24
2023-01-29T05:05:55.926Z,1.25
2023-01-29T05:07:02.472Z,1.21
2023-01-29T05:08:06.643Z,1.30
2023-01-29T05:09:10.031Z,1.28
2023-01-29T05:10:14.925Z,1.26
2023-01-29T05:11:20.335Z,1.29
2023-01-29T05:12:25.183Z,1.23
2023-01-29T05:13:30.284Z,1.20
2023-01-29T05:14:35.492Z,1.23
2023-01-29T05:15:40.819Z,1.24
2023-01-29T05:16:47.795Z,1.25
2023-01-29T05:17:50.197Z,1.22
2023-01-29T05:18:52.901Z,1.23
2023-01-29T05:19:56.653Z,1.20
2023-01-29T05:21:02.163Z,1.18
2023-01-29T05:22:06.541Z,1.14
2023-01-29T05:23:20.835Z,1.13
2023-01-29T05:24:26.973Z,1.11
2023-01-29T05:25:32.939Z,1.08
2023-01-29T05:26:54.076Z,1.10
2023-01-29T05:28:14.202Z,1.16
2023-01-29T05:29:18.191Z,1.15
2023-01-29T05:30:20.530Z,1.06
2023-01-29T05:31:23.453Z,1.09
2023-01-29T05:32:25.926Z,1.09
2023-01-29T05:33:30.883Z,1.12
2023-01-29T05:34:33.312Z,1.09
2023-01-29T05:35:35.773Z,1.08
2023-01-29T05:36:38.240Z,1.09
2023-01-29T05:37:41.075Z,1.14
2023-01-29T05:39:03.777Z,1.17
2023-01-29T05:40:08.949Z,1.13
2023-01-29T05:41:11.312Z,1.13
2023-01-29T05:42:13.729Z,1.21
2023-01-29T05:43:21.594Z,1.16
2023-01-29T05:44:23.973Z,1.17
2023-01-29T05:45:26.554Z,1.12
2023-01-29T05:46:28.974Z,1.14
2023-01-29T05:47:31.419Z,1.14
2023-01-29T05:48:35.058Z,1.04
2023-01-29T05:49:38.792Z,1.04
2023-01-29T05:50:41.216Z,1.02
2023-01-29T05:51:43.737Z,1.09
2023-01-29T05:52:46.117Z,1.15
2023-01-29T05:53:48.720Z,1.11
2023-01-29T05:54:51.138Z,1.08
2023-01-29T05:55:53.434Z,1.04
2023-01-29T05:56:55.803Z,1.06
2023-01-29T05:57:58.247Z,1.05
2023-01-29T05:59:01.173Z,1.05
2023-01-29T06:00:04.959Z,1.10
2023-01-29T06:01:18.474Z,1.10
2023-01-29T06:02:21.429Z,1.12
2023-01-29T06:03:23.737Z,1.10
2023-01-29T06:04:26.333Z,1.12
2023-01-29T06:05:28.817Z,1.13
2023-01-29T06:06:31.125Z,1.14
2023-01-29T06:07:34.012Z,1.10
2023-01-29T06:08:36.752Z,1.14
2023-01-29T06:09:39.277Z,1.04
2023-01-29T06:10:41.652Z,1.09
2023-01-29T06:11:43.988Z,1.11
2023-01-29T06:12:47.353Z,1.08
2023-01-29T06:13:49.755Z,1.06
2023-01-29T06:14:52.155Z,1.11
2023-01-29T06:15:54.867Z,1.09
2023-01-29T06:16:57.320Z,1.05
2023-01-29T06:17:59.699Z,1.10
2023-01-29T06:19:02.190Z,1.05
2023-01-29T06:20:05.929Z,1.11
2023-01-29T06:21:11.835Z,1.06
2023-01-29T06:22:14.371Z,1.06
2023-01-29T06:23:16.847Z,1.07
2023-01-29T06:24:19.150Z,1.02
2023-01-29T06:25:21.584Z,1.02
2023-01-29T06:26:24.186Z,1.05
2023-01-29T06:27:26.675Z,1.06
2023-01-29T06:28:29.592Z,1.07
2023-01-29T06:29:32.239Z,1.08
2023-01-29T06:30:34.786Z,1.06
2023-01-29T06:31:39.244Z,1.07
2023-01-29T06:32:42.170Z,1.02
2023-01-29T06:33:44.968Z,1.05
2023-01-29T06:34:49.460Z,1.03
2023-01-29T06:35:59.676Z,1.05
2023-01-29T06:37:02.331Z,1.03
2023-01-29T06:38:04.635Z,1.05
2023-01-29T06:39:07.027Z,1.02
2023-01-29T06:40:10.239Z,1.01
2023-01-29T06:41:16.301Z,0.99
2023-01-29T06:42:20.668Z,1.02
2023-01-29T06:43:24.063Z,1.01
2023-01-29T06:44:26.627Z,0.96
2023-01-29T06:45:29.191Z,0.99
2023-01-29T06:46:32.611Z,1.00
2023-01-29T06:47:35.418Z,1.02
2023-01-29T06:48:38.824Z,1.05
2023-01-29T06:49:41.399Z,0.97
2023-01-29T06:50:44.079Z,1.02
2023-01-29T06:51:46.430Z,0.99
2023-01-29T06:52:48.831Z,1.01
2023-01-29T06:53:51.272Z,0.96
2023-01-29T06:54:53.676Z,0.99
2023-01-29T06:55:56.103Z,0.97
2023-01-29T06:56:58.624Z,0.97
2023-01-29T06:58:05.467Z,0.96
2023-01-29T06:59:08.829Z,0.93
2023-01-29T07:00:11.884Z,0.96
2023-01-29T07:01:33.028Z,0.97
2023-01-29T07:02:37.500Z,0.96
2023-01-29T07:03:41.745Z,1.01
2023-01-29T07:04:44.091Z,1.00
2023-01-29T07:05:53.534Z,0.98
2023-01-29T07:06:56.390Z,1.01
2023-01-29T07:07:59.116Z,1.04
2023-01-29T07:09:03.899Z,1.03
2023-01-29T07:10:07.464Z,1.04
2023-01-29T07:11:10.214Z,1.01
2023-01-29T07:12:12.677Z,1.01
2023-01-29T07:13:15.072Z,1.02
2023-01-29T07:14:17.658Z,1.01
2023-01-29T07:15:21.530Z,0.97
2023-01-29T07:16:25.158Z,0.99
2023-01-29T07:17:27.880Z,0.98
2023-01-29T07:18:31.779Z,1.01
2023-01-29T07:19:34.517Z,1.03
2023-01-29T07:20:36.888Z,0.97
2023-01-29T07:21:39.368Z,0.97
2023-01-29T07:22:41.890Z,1.00
2023-01-29T07:23:44.650Z,1.03
2023-01-29T07:24:48.592Z,1.03
2023-01-29T07:25:51.394Z,1.03
2023-01-29T07:26:53.910Z,1.07
2023-01-29T07:27:57.478Z,1.09
2023-01-29T07:29:01.565Z,1.05
2023-01-29T07:30:04.651Z,1.04
2023-01-29T07:31:10.275Z,1.09
2023-01-29T07:32:12.705Z,1.08
2023-01-29T07:33:15.310Z,1.06
2023-01-29T07:34:18.018Z,1.08
2023-01-29T07:35:20.745Z,1.09
2023-01-29T07:36:24.324Z,1.13
2023-01-29T07:37:26.726Z,1.12
2023-01-29T07:38:30.309Z,1.08
2023-01-29T07:39:33.542Z,1.11
2023-01-29T07:40:36.298Z,1.13
2023-01-29T07:41:38.727Z,1.12
2023-01-29T07:42:50.898Z,1.15
2023-01-29T07:43:53.581Z,1.19
2023-01-29T07:44:56.183Z,1.14
2023-01-29T07:46:03.487Z,1.17
2023-01-29T07:47:06.205Z,1.22
2023-01-29T07:48:11.857Z,1.25
2023-01-29T07:49:14.539Z,1.23
2023-01-29T07:50:17.520Z,1.25
2023-01-29T07:51:21.568Z,1.32
2023-01-29T07:52:24.033Z,1.32
2023-01-29T07:53:27.801Z,1.25
2023-01-29T07:54:31.527Z,1.45
2023-01-29T07:55:34.035Z,1.38
2023-01-29T07:56:36.454Z,1.36
2023-01-29T07:57:38.904Z,1.32
2023-01-29T07:58:41.320Z,1.29
2023-01-29T07:59:43.702Z,1.29
2023-01-29T08:00:46.580Z,1.26
2023-01-29T08:01:49.135Z,1.24
2023-01-29T08:02:51.571Z,1.26
2023-01-29T08:03:53.915Z,1.29
2023-01-29T08:04:56.282Z,1.29
2023-01-29T08:05:58.744Z,1.25
2023-01-29T08:07:01.373Z,1.27
2023-01-29T08:08:07.467Z,1.32
2023-01-29T08:09:10.900Z,1.35
2023-01-29T08:10:13.253Z,1.38
2023-01-29T08:11:18.605Z,1.34
2023-01-29T08:12:21.253Z,1.33
2023-01-29T08:13:33.944Z,1.33
2023-01-29T08:14:36.322Z,1.36
2023-01-29T08:15:39.367Z,1.37
2023-01-29T08:16:42.370Z,1.36
2023-01-29T08:17:57.270Z,1.31
2023-01-29T08:19:02.241Z,1.38
2023-01-29T08:20:04.683Z,1.37
2023-01-29T08:21:07.694Z,1.40
2023-01-29T08:22:10.159Z,1.38
2023-01-29T08:23:15.155Z,1.38
2023-01-29T08:24:17.591Z,1.42
2023-01-29T08:25:20.162Z,1.44
2023-01-29T08:26:22.712Z,1.48
2023-01-29T08:27:25.134Z,1.50
2023-01-29T08:28:27.649Z,1.48
2023-01-29T08:29:30.401Z,1.48
2023-01-29T08:30:34.637Z,1.50
2023-01-29T08:31:37.522Z,1.48
2023-01-29T08:32:40.060Z,1.50
2023-01-29T08:33:42.585Z,1.49
2023-01-29T08:34:45.072Z,1.43
2023-01-29T08:35:51.324Z,1.48
2023-01-29T08:36:53.738Z,1.46
2023-01-29T08:38:01.628Z,1.51
2023-01-29T08:39:05.543Z,1.46
2023-01-29T08:40:11.024Z,1.47
2023-01-29T08:41:14.874Z,1.47
2023-01-29T08:42:17.284Z,1.51
2023-01-29T08:43:19.689Z,1.51
2023-01-29T08:44:21.999Z,1.52
2023-01-29T08:45:25.300Z,1.52
2023-01-29T08:46:28.312Z,1.52
2023-01-29T08:47:30.736Z,1.57
2023-01-29T08:48:33.550Z,1.56
2023-01-29T08:49:36.424Z,1.47
2023-01-29T08:50:39.458Z,1.48
2023-01-29T08:51:41.999Z,1.48
2023-01-29T08:52:45.242Z,1.54
2023-01-29T08:53:47.863Z,1.57
2023-01-29T08:54:51.047Z,1.51
2023-01-29T08:55:53.573Z,1.52
2023-01-29T08:56:55.911Z,1.52
2023-01-29T08:57:58.607Z,1.53
2023-01-29T08:59:01.094Z,1.52
2023-01-29T09:00:05.468Z,1.54
2023-01-29T09:01:13.632Z,1.59
2023-01-29T09:02:16.155Z,1.50
2023-01-29T09:03:18.721Z,1.46
2023-01-29T09:04:22.537Z,1.57
2023-01-29T09:05:24.892Z,1.58
2023-01-29T09:06:27.265Z,1.60
2023-01-29T09:07:31.559Z,1.62
2023-01-29T09:08:34.343Z,1.61
2023-01-29T09:09:37.831Z,1.65
2023-01-29T09:10:40.415Z,1.69
2023-01-29T09:11:42.957Z,1.72
2023-01-29T09:12:45.706Z,1.67
2023-01-29T09:13:48.129Z,1.73
2023-01-29T09:14:51.261Z,1.74
2023-01-29T09:15:53.633Z,1.69
2023-01-29T09:16:56.027Z,1.77
2023-01-29T09:17:58.513Z,1.83
2023-01-29T09:19:01.323Z,1.82
2023-01-29T09:20:09.884Z,1.83
2023-01-29T09:21:13.756Z,1.84
2023-01-29T09:22:16.238Z,1.85
2023-01-29T09:23:22.833Z,1.88
2023-01-29T09:24:25.278Z,1.91
2023-01-29T09:25:27.808Z,1.84
2023-01-29T09:26:30.307Z,1.76
2023-01-29T09:27:34.007Z,1.80
2023-01-29T09:28:36.563Z,1.81
2023-01-29T09:29:39.320Z,1.87
2023-01-29T09:30:42.037Z,1.86
2023-01-29T09:31:44.544Z,1.82
2023-01-29T09:32:53.618Z,1.87
2023-01-29T09:33:56.389Z,1.83
2023-01-29T09:34:59.449Z,1.78
2023-01-29T09:36:03.655Z,1.83
2023-01-29T09:37:06.709Z,1.80
2023-01-29T09:38:10.867Z,1.87
2023-01-29T09:39:13.687Z,1.87
2023-01-29T09:40:34.810Z,1.79
2023-01-29T09:41:58.965Z,1.78
2023-01-29T09:43:14.585Z,1.82
2023-01-29T09:44:44.848Z,1.86
2023-01-29T09:46:16.111Z,1.84
2023-01-29T09:47:20.492Z,1.83
2023-01-29T09:48:28.849Z,1.84
2023-01-29T09:49:37.943Z,1.87
2023-01-29T09:50:43.990Z,1.86
2023-01-29T09:52:10.716Z,1.89
2023-01-29T09:53:27.084Z,1.93
2023-01-29T09:54:32.632Z,1.96
2023-01-29T09:55:41.626Z,1.94
2023-01-29T09:56:46.276Z,1.92
2023-01-29T09:57:59.973Z,1.88
2023-01-29T09:59:03.016Z,1.90
2023-01-29T10:00:06.512Z,1.91
2023-01-29T10:01:26.975Z,1.98
2023-01-29T10:03:07.988Z,1.94
2023-01-29T10:04:34.960Z,1.93
2023-01-29T10:06:11.394Z,1.89
2023-01-29T10:07:41.237Z,1.93
2023-01-29T10:09:05.867Z,1.96
2023-01-29T10:10:41.004Z,1.88
2023-01-29T10:11:47.933Z,1.88
2023-01-29T10:13:01.945Z,1.91
2023-01-29T10:14:31.323Z,1.95
2023-01-29T10:15:36.543Z,2.02
2023-01-29T10:16:49.183Z,2.03
2023-01-29T10:18:13.368Z,2.01
2023-01-29T10:19:54.292Z,1.98
2023-01-29T10:20:59.635Z,2.02
2023-01-29T10:22:37.672Z,2.00
2023-01-29T10:23:56.575Z,1.95
2023-01-29T10:25:05.385Z,1.91
2023-01-29T10:26:12.460Z,1.98
2023-01-29T10:27:17.279Z,1.96
2023-01-29T10:28:27.285Z,1.98
2023-01-29T10:29:31.788Z,1.88
2023-01-29T10:30:48.872Z,1.92
2023-01-29T10:31:59.758Z,2.02
2023-01-29T10:33:04.603Z,1.92
2023-01-29T10:34:30.168Z,1.96
2023-01-29T10:35:39.864Z,2.02
2023-01-29T10:36:45.787Z,2.01
2023-01-29T10:37:49.258Z,2.04
2023-01-29T10:38:53.133Z,2.02
2023-01-29T10:39:55.524Z,2.00
2023-01-29T10:41:12.302Z,2.12
2023-01-29T10:42:21.408Z,2.09
2023-01-29T10:43:35.929Z,2.09
2023-01-29T10:44:49.870Z,2.04
2023-01-29T10:46:19.539Z,2.10
2023-01-29T10:47:42.721Z,2.09
2023-01-29T10:48:52.403Z,2.12
2023-01-29T10:50:25.816Z,2.17
2023-01-29T10:51:43.228Z,2.23
2023-01-29T10:52:58.326Z,2.19
2023-01-29T10:54:23.908Z,2.19
2023-01-29T10:55:41.176Z,2.10
2023-01-29T10:57:07.196Z,2.14
2023-01-29T10:58:36.172Z,2.17
2023-01-29T11:00:20.366Z,2.21
2023-01-29T11:01:24.100Z,2.23
2023-01-29T11:02:26.835Z,2.29
2023-01-29T11:03:32.451Z,2.27
2023-01-29T11:04:39.380Z,2.23
2023-01-29T11:05:47.569Z,2.21
2023-01-29T11:06:49.947Z,2.06
2023-01-29T11:08:04.095Z,2.27
2023-01-29T11:09:12.126Z,2.20
2023-01-29T11:10:18.315Z,2.27
2023-01-29T11:11:24.924Z,2.27
2023-01-29T11:12:30.958Z,2.18
2023-01-29T11:13:46.361Z,2.23
2023-01-29T11:15:14.186Z,2.21
2023-01-29T11:16:16.977Z,2.31
2023-01-29T11:17:24.509Z,2.21
2023-01-29T11:18:27.175Z,2.08
2023-01-29T11:19:42.509Z,2.19
2023-01-29T11:20:46.311Z,2.17
2023-01-29T11:21:51.899Z,2.29
2023-01-29T11:22:55.949Z,2.15
2023-01-29T11:24:18.915Z,2.21
2023-01-29T11:25:22.315Z,2.14
2023-01-29T11:26:25.099Z,2.17
2023-01-29T11:27:29.841Z,2.14
2023-01-29T11:28:40.642Z,2.26
2023-01-29T11:29:51.416Z,2.24
2023-01-29T11:30:54.573Z,2.25
2023-01-29T11:31:59.043Z,2.36
2023-01-29T11:33:04.465Z,2.27
2023-01-29T11:34:18.854Z,2.22
2023-01-29T11:35:24.464Z,2.36
2023-01-29T11:36:35.463Z,2.30
2023-01-29T11:37:39.844Z,2.31
2023-01-29T11:38:42.739Z,2.41
2023-01-29T11:39:50.605Z,2.29
2023-01-29T11:40:53.907Z,2.25
2023-01-29T11:42:01.683Z,2.20
2023-01-29T11:43:30.277Z,2.17
2023-01-29T11:44:33.856Z,2.30
2023-01-29T11:45:40.547Z,2.34
2023-01-29T11:46:43.688Z,2.25
2023-01-29T11:47:53.057Z,2.46
2023-01-29T11:49:02.542Z,2.25
2023-01-29T11:50:22.506Z,2.14
2023-01-29T11:51:28.445Z,2.18
2023-01-29T11:52:41.063Z,2.19
2023-01-29T11:53:49.921Z,2.20
2023-01-29T11:55:02.789Z,2.20
2023-01-29T11:56:16.930Z,2.20
2023-01-29T11:57:38.925Z,2.13
2023-01-29T11:58:42.331Z,2.17
2023-01-29T11:59:51.069Z,2.16
2023-01-29T12:00:55.761Z,2.11
2023-01-29T12:02:26.828Z,2.20
2023-01-29T12:03:37.091Z,2.16
2023-01-29T12:04:40.206Z,2.12
2023-01-29T12:05:55.571Z,2.26
2023-01-29T12:06:58.751Z,2.15
2023-01-29T12:08:02.669Z,2.06
2023-01-29T12:09:16.910Z,2.17
2023-01-29T12:10:41.171Z,2.26
2023-01-29T12:11:43.832Z,2.13
2023-01-29T12:12:46.483Z,2.00
2023-01-29T12:13:55.137Z,2.04
2023-01-29T12:15:27.148Z,2.16
2023-01-29T12:16:54.287Z,2.19
2023-01-29T12:18:00.643Z,2.05
2023-01-29T12:19:33.392Z,2.00
2023-01-29T12:20:51.878Z,2.09
2023-01-29T12:22:03.015Z,2.09
2023-01-29T12:23:40.496Z,2.04
2023-01-29T12:25:01.922Z,2.14
2023-01-29T12:26:16.082Z,2.13
2023-01-29T12:27:25.562Z,2.07
2023-01-29T12:28:42.446Z,2.01
2023-01-29T12:30:02.085Z,1.98
2023-01-29T12:31:06.535Z,1.98
2023-01-29T12:32:23.489Z,2.01
2023-01-29T12:34:04.511Z,1.93
2023-01-29T12:35:07.302Z,1.97
2023-01-29T12:36:13.261Z,1.86
2023-01-29T12:37:37.870Z,1.88
2023-01-29T12:38:41.326Z,1.92
2023-01-29T12:39:44.564Z,1.91
2023-01-29T12:40:53.488Z,1.83
2023-01-29T12:42:05.436Z,1.89
2023-01-29T12:43:24.383Z,1.92
2023-01-29T12:44:42.568Z,1.95
2023-01-29T12:45:53.878Z,1.86
2023-01-29T12:47:00.651Z,1.74
2023-01-29T12:48:08.964Z,1.83
2023-01-29T12:49:24.861Z,1.92
2023-01-29T12:50:30.005Z,2.00
2023-01-29T12:51:39.263Z,1.97
2023-01-29T12:52:49.809Z,2.02
2023-01-29T12:54:05.134Z,2.09
2023-01-29T12:55:54.087Z,2.00
2023-01-29T12:57:03.306Z,1.96
2023-01-29T12:58:16.286Z,1.81
2023-01-29T12:59:43.462Z,1.84
2023-01-29T13:00:48.997Z,1.87
2023-01-29T13:01:59.317Z,1.78
2023-01-29T13:03:28.894Z,1.74
2023-01-29T13:04:47.637Z,1.90
2023-01-29T13:06:15.060Z,1.66
2023-01-29T13:07:40.303Z,1.75
2023-01-29T13:08:53.928Z,1.80
2023-01-29T13:10:05.851Z,1.80
2023-01-29T13:11:13.869Z,1.67
2023-01-29T13:12:19.354Z,1.71
2023-01-29T13:13:25.084Z,1.63
2023-01-29T13:14:57.994Z,1.73
2023-01-29T13:16:01.712Z,1.66
2023-01-29T13:17:14.733Z,1.58
2023-01-29T13:18:29.841Z,1.60
2023-01-29T13:19:41.093Z,1.68
2023-01-29T13:20:45.650Z,1.73
2023-01-29T13:21:49.140Z,1.71
2023-01-29T13:22:54.623Z,1.62
2023-01-29T13:24:03.496Z,1.66
2023-01-29T13:25:15.822Z,1.72
2023-01-29T13:26:20.501Z,1.75
2023-01-29T13:27:26.841Z,1.76
2023-01-29T13:28:30.096Z,1.85
2023-01-29T13:29:33.644Z,1.78
2023-01-29T13:30:37.675Z,1.82
2023-01-29T13:31:42.344Z,1.69
2023-01-29T13:32:53.162Z,1.69
2023-01-29T13:34:15.763Z,1.71
2023-01-29T13:35:21.621Z,1.55
2023-01-29T13:36:29.379Z,1.50
2023-01-29T13:37:39.416Z,1.46
2023-01-29T13:38:45.467Z,1.58
2023-01-29T13:39:52.646Z,1.65
2023-01-29T13:41:10.116Z,1.61
2023-01-29T13:42:32.445Z,1.65
2023-01-29T13:43:39.031Z,1.63
2023-01-29T13:44:42.060Z,1.61
2023-01-29T13:45:45.919Z,1.62
2023-01-29T13:46:55.353Z,1.68
2023-01-29T13:48:32.263Z,1.59
2023-01-29T13:49:40.642Z,1.62
2023-01-29T13:50:51.285Z,1.59
2023-01-29T13:51:54.880Z,1.51
2023-01-29T13:53:02.378Z,1.47
2023-01-29T13:54:09.326Z,1.50
2023-01-29T13:55:14.900Z,1.50
2023-01-29T13:56:33.790Z,1.55
2023-01-29T13:57:46.355Z,1.50
2023-01-29T13:58:53.118Z,1.50
2023-01-29T13:59:56.896Z,1.45
2023-01-29T14:01:04.125Z,1.45
2023-01-29T14:02:22.282Z,1.46
2023-01-29T14:03:25.218Z,1.54
2023-01-29T14:04:31.439Z,1.57
2023-01-29T14:05:42.751Z,1.48
2023-01-29T14:06:52.915Z,1.44
2023-01-29T14:07:57.580Z,1.43
2023-01-29T14:09:01.840Z,1.55
2023-01-29T14:10:20.598Z,1.42
2023-01-29T14:11:36.283Z,1.42
2023-01-29T14:12:41.133Z,1.42
2023-01-29T14:13:46.553Z,1.44
2023-01-29T14:14:49.598Z,1.43
2023-01-29T14:15:58.373Z,1.46
2023-01-29T14:17:02.859Z,1.42
2023-01-29T14:18:13.930Z,1.52
2023-01-29T14:19:19.178Z,1.43
2023-01-29T14:20:32.299Z,1.40
2023-01-29T14:21:41.462Z,1.42
2023-01-29T14:22:45.384Z,1.41
2023-01-29T14:23:51.378Z,1.42
2023-01-29T14:25:00.774Z,1.49
2023-01-29T14:26:06.536Z,1.54
2023-01-29T14:27:22.940Z,1.54
2023-01-29T14:28:31.408Z,1.48
2023-01-29T14:29:40.771Z,1.48
2023-01-29T14:30:49.268Z,1.54
2023-01-29T14:32:00.164Z,1.51
2023-01-29T14:33:03.985Z,1.36
2023-01-29T14:34:15.709Z,1.37
2023-01-29T14:35:22.299Z,1.40
2023-01-29T14:36:27.332Z,1.43
2023-01-29T14:37:41.737Z,1.34
2023-01-29T14:38:52.557Z,1.36
2023-01-29T14:40:08.475Z,1.34
2023-01-29T14:41:25.663Z,1.38
2023-01-29T14:42:32.576Z,1.26
2023-01-29T14:43:36.530Z,1.23
2023-01-29T14:44:46.044Z,1.30
2023-01-29T14:45:49.893Z,1.30
2023-01-29T14:46:53.393Z,1.21
2023-01-29T14:48:04.027Z,1.22
2023-01-29T14:49:10.240Z,1.17
2023-01-29T14:50:38.361Z,1.14
2023-01-29T14:51:43.882Z,1.20
2023-01-29T14:52:51.589Z,1.14
2023-01-29T14:54:01.798Z,1.20
2023-01-29T14:55:09.791Z,1.19
2023-01-29T14:56:23.582Z,1.17
2023-01-29T14:57:29.070Z,1.05
2023-01-29T14:58:57.974Z,1.04
2023-01-29T15:00:06.748Z,1.15
2023-01-29T15:01:24.334Z,1.22
2023-01-29T15:02:38.786Z,1.16
2023-01-29T15:03:50.296Z,1.13
2023-01-29T15:04:57.171Z,1.17
2023-01-29T15:06:02.617Z,1.19
2023-01-29T15:07:28.626Z,1.19
2023-01-29T15:08:47.176Z,1.14
2023-01-29T15:10:01.393Z,1.06
2023-01-29T15:11:47.513Z,1.15
2023-01-29T15:12:56.741Z,1.09
2023-01-29T15:14:24.459Z,1.08
2023-01-29T15:15:50.187Z,1.05
2023-01-29T15:17:19.395Z,1.04
2023-01-29T15:18:29.582Z,1.01
2023-01-29T15:19:46.959Z,0.92
2023-01-29T15:20:50.240Z,0.94
2023-01-29T15:22:08.602Z,0.96
2023-01-29T15:23:32.540Z,0.99
2023-01-29T15:24:37.249Z,1.00
2023-01-29T15:25:50.184Z,0.99